sensor_id;sensor_type;location;lat;lon;timestamp;pressure;altitude;pressure_sealevel;temperature
42119;BMP280;27783;42.782;23.274;2023-03-01T00:01:34;96016.78;;;6.35
42119;BMP280;27783;42.782;23.274;2023-03-01T00:04:00;96021.72;;;6.40
42119;BMP280;27783;42.782;23.274;2023-03-01T00:06:28;96011.53;;;6.35
42119;BMP280;27783;42.782;23.274;2023-03-01T00:08:55;96026.72;;;6.45
42119;BMP280;27783;42.782;23.274;2023-03-01T00:11:27;96017.66;;;6.42
42119;BMP280;27783;42.782;23.274;2023-03-01T00:14:00;96012.34;;;6.39
42119;BMP280;27783;42.782;23.274;2023-03-01T00:16:34;96008.66;;;6.40
42119;BMP280;27783;42.782;23.274;2023-03-01T00:19:22;96013.13;;;6.39
42119;BMP280;27783;42.782;23.274;2023-03-01T00:21:50;96010.16;;;6.41
42119;BMP280;27783;42.782;23.274;2023-03-01T00:24:16;96016.25;;;6.45
42119;BMP280;27783;42.782;23.274;2023-03-01T00:26:45;96018.56;;;6.49
42119;BMP280;27783;42.782;23.274;2023-03-01T00:29:11;96010.78;;;6.53
42119;BMP280;27783;42.782;23.274;2023-03-01T00:31:38;96002.03;;;6.46
42119;BMP280;27783;42.782;23.274;2023-03-01T00:34:04;96002.78;;;6.46
42119;BMP280;27783;42.782;23.274;2023-03-01T00:36:34;95991.16;;;6.44
42119;BMP280;27783;42.782;23.274;2023-03-01T00:39:04;95985.84;;;6.40
42119;BMP280;27783;42.782;23.274;2023-03-01T00:41:30;95985.63;;;6.48
42119;BMP280;27783;42.782;23.274;2023-03-01T00:43:56;95979.50;;;6.41
42119;BMP280;27783;42.782;23.274;2023-03-01T00:46:31;95983.31;;;6.44
42119;BMP280;27783;42.782;23.274;2023-03-01T00:48:57;95975.78;;;6.42
42119;BMP280;27783;42.782;23.274;2023-03-01T00:51:43;95982.06;;;6.38
42119;BMP280;27783;42.782;23.274;2023-03-01T00:54:09;95987.56;;;6.33
42119;BMP280;27783;42.782;23.274;2023-03-01T00:56:35;95994.31;;;6.34
42119;BMP280;27783;42.782;23.274;2023-03-01T00:59:02;95990.53;;;6.32
42119;BMP280;27783;42.782;23.274;2023-03-01T01:01:30;95987.41;;;6.26
42119;BMP280;27783;42.782;23.274;2023-03-01T01:03:59;95990.03;;;6.26
42119;BMP280;27783;42.782;23.274;2023-03-01T01:06:28;95992.66;;;6.26
42119;BMP280;27783;42.782;23.274;2023-03-01T01:08:55;96002.66;;;6.39
42119;BMP280;27783;42.782;23.274;2023-03-01T01:11:23;95990.59;;;6.35
42119;BMP280;27783;42.782;23.274;2023-03-01T01:13:50;95995.63;;;6.43
42119;BMP280;27783;42.782;23.274;2023-03-01T01:16:17;95988.59;;;6.47
42119;BMP280;27783;42.782;23.274;2023-03-01T01:18:43;95996.00;;;6.42
42119;BMP280;27783;42.782;23.274;2023-03-01T01:21:17;95989.09;;;6.52
42119;BMP280;27783;42.782;23.274;2023-03-01T01:23:45;95987.28;;;6.56
42119;BMP280;27783;42.782;23.274;2023-03-01T01:26:13;96004.94;;;6.59
42119;BMP280;27783;42.782;23.274;2023-03-01T01:28:39;95989.22;;;6.59
42119;BMP280;27783;42.782;23.274;2023-03-01T01:31:06;96003.00;;;6.56
42119;BMP280;27783;42.782;23.274;2023-03-01T01:33:33;95996.31;;;6.40
42119;BMP280;27783;42.782;23.274;2023-03-01T01:35:58;95991.78;;;6.37
42119;BMP280;27783;42.782;23.274;2023-03-01T01:38:25;95986.78;;;6.32
42119;BMP280;27783;42.782;23.274;2023-03-01T01:40:51;95986.00;;;6.29
42119;BMP280;27783;42.782;23.274;2023-03-01T01:43:31;95991.16;;;6.25
42119;BMP280;27783;42.782;23.274;2023-03-01T01:46:04;95988.78;;;6.20
42119;BMP280;27783;42.782;23.274;2023-03-01T01:48:48;95994.44;;;6.22
42119;BMP280;27783;42.782;23.274;2023-03-01T01:51:33;95998.56;;;6.23
42119;BMP280;27783;42.782;23.274;2023-03-01T01:54:31;95994.44;;;6.22
42119;BMP280;27783;42.782;23.274;2023-03-01T01:57:18;95999.56;;;6.34
42119;BMP280;27783;42.782;23.274;2023-03-01T01:59:50;96003.63;;;6.32
42119;BMP280;27783;42.782;23.274;2023-03-01T02:02:37;96003.03;;;6.23
42119;BMP280;27783;42.782;23.274;2023-03-01T02:05:14;95992.50;;;6.19
42119;BMP280;27783;42.782;23.274;2023-03-01T02:07:43;95983.47;;;6.17
42119;BMP280;27783;42.782;23.274;2023-03-01T02:10:10;95983.00;;;6.12
42119;BMP280;27783;42.782;23.274;2023-03-01T02:12:56;95978.84;;;6.11
42119;BMP280;27783;42.782;23.274;2023-03-01T02:15:24;95980.72;;;6.10
42119;BMP280;27783;42.782;23.274;2023-03-01T02:17:54;95980.53;;;6.18
42119;BMP280;27783;42.782;23.274;2023-03-01T02:20:33;95973.41;;;6.19
42119;BMP280;27783;42.782;23.274;2023-03-01T02:23:11;95970.31;;;6.14
42119;BMP280;27783;42.782;23.274;2023-03-01T02:25:43;95972.94;;;6.14
42119;BMP280;27783;42.782;23.274;2023-03-01T02:30:47;95962.94;;;6.19
42119;BMP280;27783;42.782;23.274;2023-03-01T02:33:42;95965.84;;;6.14
42119;BMP280;27783;42.782;23.274;2023-03-01T02:36:15;95973.78;;;6.17
42119;BMP280;27783;42.782;23.274;2023-03-01T02:38:44;95971.41;;;6.13
42119;BMP280;27783;42.782;23.274;2023-03-01T02:41:11;95964.00;;;6.15
42119;BMP280;27783;42.782;23.274;2023-03-01T02:43:39;95974.09;;;6.16
42119;BMP280;27783;42.782;23.274;2023-03-01T02:46:14;95974.47;;;6.15
42119;BMP280;27783;42.782;23.274;2023-03-01T02:48:55;95965.25;;;6.20
42119;BMP280;27783;42.782;23.274;2023-03-01T02:51:46;95970.75;;;6.16
42119;BMP280;27783;42.782;23.274;2023-03-01T02:54:28;95970.69;;;6.12
42119;BMP280;27783;42.782;23.274;2023-03-01T02:56:56;95972.53;;;6.12
42119;BMP280;27783;42.782;23.274;2023-03-01T02:59:33;95967.63;;;6.10
42119;BMP280;27783;42.782;23.274;2023-03-01T03:02:04;95954.22;;;6.12
42119;BMP280;27783;42.782;23.274;2023-03-01T03:04:31;95961.72;;;6.13
42119;BMP280;27783;42.782;23.274;2023-03-01T03:07:01;95964.69;;;6.12
42119;BMP280;27783;42.782;23.274;2023-03-01T03:09:28;95964.53;;;6.23
42119;BMP280;27783;42.782;23.274;2023-03-01T03:11:55;95962.91;;;6.16
42119;BMP280;27783;42.782;23.274;2023-03-01T03:14:20;95966.63;;;6.15
42119;BMP280;27783;42.782;23.274;2023-03-01T03:16:49;95971.41;;;6.13
42119;BMP280;27783;42.782;23.274;2023-03-01T03:19:20;95972.19;;;6.13
42119;BMP280;27783;42.782;23.274;2023-03-01T03:21:45;95975.00;;;6.05
42119;BMP280;27783;42.782;23.274;2023-03-01T03:24:11;95982.09;;;6.04
42119;BMP280;27783;42.782;23.274;2023-03-01T03:26:37;95983.88;;;6.00
42119;BMP280;27783;42.782;23.274;2023-03-01T03:29:04;95984.16;;;5.96
42119;BMP280;27783;42.782;23.274;2023-03-01T03:31:32;95984.16;;;5.96
42119;BMP280;27783;42.782;23.274;2023-03-01T03:33:59;95985.31;;;5.98
42119;BMP280;27783;42.782;23.274;2023-03-01T03:36:24;95991.22;;;5.95
42119;BMP280;27783;42.782;23.274;2023-03-01T03:38:50;95993.41;;;5.93
42119;BMP280;27783;42.782;23.274;2023-03-01T03:41:17;95999.00;;;5.92
42119;BMP280;27783;42.782;23.274;2023-03-01T03:43:43;96002.47;;;5.96
42119;BMP280;27783;42.782;23.274;2023-03-01T03:46:18;95989.03;;;5.97
42119;BMP280;27783;42.782;23.274;2023-03-01T03:48:44;95996.94;;;6.00
42119;BMP280;27783;42.782;23.274;2023-03-01T03:51:16;96003.34;;;6.03
42119;BMP280;27783;42.782;23.274;2023-03-01T03:53:42;95999.66;;;6.04
42119;BMP280;27783;42.782;23.274;2023-03-01T03:56:08;96012.81;;;6.07
42119;BMP280;27783;42.782;23.274;2023-03-01T03:58:34;96010.88;;;6.04
42119;BMP280;27783;42.782;23.274;2023-03-01T04:01:02;96002.03;;;5.94
42119;BMP280;27783;42.782;23.274;2023-03-01T04:03:31;95997.81;;;5.89
42119;BMP280;27783;42.782;23.274;2023-03-01T04:06:00;96011.31;;;5.91
42119;BMP280;27783;42.782;23.274;2023-03-01T04:08:26;96006.41;;;5.90
42119;BMP280;27783;42.782;23.274;2023-03-01T04:11:10;96006.09;;;5.91
42119;BMP280;27783;42.782;23.274;2023-03-01T04:13:53;96013.56;;;5.93
42119;BMP280;27783;42.782;23.274;2023-03-01T04:16:39;96006.50;;;5.93
42119;BMP280;27783;42.782;23.274;2023-03-01T04:19:26;96004.56;;;5.90
42119;BMP280;27783;42.782;23.274;2023-03-01T04:21:53;95997.75;;;5.86
42119;BMP280;27783;42.782;23.274;2023-03-01T04:24:19;95994.38;;;5.85
42119;BMP280;27783;42.782;23.274;2023-03-01T04:26:48;96000.69;;;5.84
42119;BMP280;27783;42.782;23.274;2023-03-01T04:29:15;95991.84;;;5.89
42119;BMP280;27783;42.782;23.274;2023-03-01T04:31:40;95994.44;;;5.89
42119;BMP280;27783;42.782;23.274;2023-03-01T04:34:06;95996.72;;;5.90
42119;BMP280;27783;42.782;23.274;2023-03-01T04:36:33;96003.72;;;5.86
42119;BMP280;27783;42.782;23.274;2023-03-01T04:39:01;95995.72;;;5.80
42119;BMP280;27783;42.782;23.274;2023-03-01T04:41:39;96005.00;;;5.77
42119;BMP280;27783;42.782;23.274;2023-03-01T04:44:06;95994.44;;;5.89
42119;BMP280;27783;42.782;23.274;2023-03-01T04:46:32;95994.97;;;5.79
42119;BMP280;27783;42.782;23.274;2023-03-01T04:48:58;95982.63;;;5.80
42119;BMP280;27783;42.782;23.274;2023-03-01T04:51:24;95976.59;;;5.76
42119;BMP280;27783;42.782;23.274;2023-03-01T04:53:51;95978.53;;;5.79
42119;BMP280;27783;42.782;23.274;2023-03-01T04:56:17;95987.22;;;5.82
42119;BMP280;27783;42.782;23.274;2023-03-01T04:58:45;95985.00;;;5.84
42119;BMP280;27783;42.782;23.274;2023-03-01T05:01:16;95990.22;;;5.84
42119;BMP280;27783;42.782;23.274;2023-03-01T05:03:44;95994.38;;;5.85
42119;BMP280;27783;42.782;23.274;2023-03-01T05:06:12;95997.69;;;5.82
42119;BMP280;27783;42.782;23.274;2023-03-01T05:08:40;95990.31;;;5.88
42119;BMP280;27783;42.782;23.274;2023-03-01T05:11:17;95989.56;;;5.87
42119;BMP280;27783;42.782;23.274;2023-03-01T05:13:45;95989.56;;;5.87
42119;BMP280;27783;42.782;23.274;2023-03-01T05:16:11;95994.53;;;5.92
42119;BMP280;27783;42.782;23.274;2023-03-01T05:18:39;95986.53;;;5.85
42119;BMP280;27783;42.782;23.274;2023-03-01T05:21:26;95995.94;;;5.90
42119;BMP280;27783;42.782;23.274;2023-03-01T05:23:52;96001.47;;;5.85
42119;BMP280;27783;42.782;23.274;2023-03-01T05:26:19;95997.50;;;5.76
42119;BMP280;27783;42.782;23.274;2023-03-01T05:28:47;95986.91;;;5.69
42119;BMP280;27783;42.782;23.274;2023-03-01T05:31:13;96002.47;;;5.81
42119;BMP280;27783;42.782;23.274;2023-03-01T05:33:40;96006.44;;;5.75
42119;BMP280;27783;42.782;23.274;2023-03-01T05:36:15;96006.69;;;5.85
42119;BMP280;27783;42.782;23.274;2023-03-01T05:38:40;96000.94;;;5.80
42119;BMP280;27783;42.782;23.274;2023-03-01T05:41:14;96006.84;;;5.77
42119;BMP280;27783;42.782;23.274;2023-03-01T05:43:45;96003.56;;;5.80
42119;BMP280;27783;42.782;23.274;2023-03-01T05:46:10;96004.06;;;5.85
42119;BMP280;27783;42.782;23.274;2023-03-01T05:48:39;96005.75;;;5.78
42119;BMP280;27783;42.782;23.274;2023-03-01T05:51:06;96010.59;;;5.76
42119;BMP280;27783;42.782;23.274;2023-03-01T05:53:53;96024.47;;;5.80
42119;BMP280;27783;42.782;23.274;2023-03-01T05:56:19;96021.63;;;5.84
42119;BMP280;27783;42.782;23.274;2023-03-01T05:58:54;96019.78;;;5.85
42119;BMP280;27783;42.782;23.274;2023-03-01T06:01:27;96024.63;;;5.86
42119;BMP280;27783;42.782;23.274;2023-03-01T06:03:53;96040.09;;;5.91
42119;BMP280;27783;42.782;23.274;2023-03-01T06:06:19;96032.94;;;5.88
42119;BMP280;27783;42.782;23.274;2023-03-01T06:08:45;96039.66;;;5.89
42119;BMP280;27783;42.782;23.274;2023-03-01T06:11:11;96039.50;;;5.98
42119;BMP280;27783;42.782;23.274;2023-03-01T06:13:37;96037.63;;;5.98
42119;BMP280;27783;42.782;23.274;2023-03-01T06:16:07;96041.03;;;5.99
42119;BMP280;27783;42.782;23.274;2023-03-01T06:18:33;96043.28;;;6.00
42119;BMP280;27783;42.782;23.274;2023-03-01T06:20:59;96041.34;;;5.97
42119;BMP280;27783;42.782;23.274;2023-03-01T06:23:25;96047.25;;;5.94
42119;BMP280;27783;42.782;23.274;2023-03-01T06:25:50;96044.56;;;5.91
42119;BMP280;27783;42.782;23.274;2023-03-01T06:28:16;96039.16;;;5.99
42119;BMP280;27783;42.782;23.274;2023-03-01T06:30:43;96042.78;;;5.95
42119;BMP280;27783;42.782;23.274;2023-03-01T06:33:09;96038.72;;;5.97
42119;BMP280;27783;42.782;23.274;2023-03-01T06:35:35;96050.44;;;6.03
42119;BMP280;27783;42.782;23.274;2023-03-01T06:38:03;96043.34;;;6.03
42119;BMP280;27783;42.782;23.274;2023-03-01T06:40:30;96045.22;;;6.03
42119;BMP280;27783;42.782;23.274;2023-03-01T06:42:57;96049.81;;;6.24
42119;BMP280;27783;42.782;23.274;2023-03-01T06:45:23;96040.22;;;6.13
42119;BMP280;27783;42.782;23.274;2023-03-01T06:48:04;96049.31;;;6.19
42119;BMP280;27783;42.782;23.274;2023-03-01T06:50:30;96035.56;;;6.22
42119;BMP280;27783;42.782;23.274;2023-03-01T06:52:57;96039.44;;;6.13
42119;BMP280;27783;42.782;23.274;2023-03-01T06:55:24;96042.81;;;6.13
42119;BMP280;27783;42.782;23.274;2023-03-01T06:57:56;96047.88;;;6.21
42119;BMP280;27783;42.782;23.274;2023-03-01T07:00:24;96040.81;;;6.22
42119;BMP280;27783;42.782;23.274;2023-03-01T07:02:59;96038.19;;;6.22
42119;BMP280;27783;42.782;23.274;2023-03-01T07:05:25;96049.97;;;6.31
42119;BMP280;27783;42.782;23.274;2023-03-01T07:07:53;96051.63;;;6.39
42119;BMP280;27783;42.782;23.274;2023-03-01T07:10:18;96037.94;;;6.45
42119;BMP280;27783;42.782;23.274;2023-03-01T07:12:46;96040.59;;;6.48
42119;BMP280;27783;42.782;23.274;2023-03-01T07:15:12;96038.75;;;6.49
42119;BMP280;27783;42.782;23.274;2023-03-01T07:17:40;96039.25;;;6.54
42119;BMP280;27783;42.782;23.274;2023-03-01T07:20:06;96045.28;;;6.40
42119;BMP280;27783;42.782;23.274;2023-03-01T07:22:33;96034.13;;;6.43
42119;BMP280;27783;42.782;23.274;2023-03-01T07:24:58;96035.66;;;6.44
42119;BMP280;27783;42.782;23.274;2023-03-01T07:27:23;96035.03;;;6.50
42119;BMP280;27783;42.782;23.274;2023-03-01T07:29:49;96034.16;;;6.61
42119;BMP280;27783;42.782;23.274;2023-03-01T07:32:16;96034.16;;;6.61
42119;BMP280;27783;42.782;23.274;2023-03-01T07:34:41;96026.94;;;6.73
42119;BMP280;27783;42.782;23.274;2023-03-01T07:37:08;96030.38;;;6.77
42119;BMP280;27783;42.782;23.274;2023-03-01T07:39:34;96030.31;;;6.74
42119;BMP280;27783;42.782;23.274;2023-03-01T07:42:00;96032.38;;;6.83
42119;BMP280;27783;42.782;23.274;2023-03-01T07:44:40;96030.31;;;6.74
42119;BMP280;27783;42.782;23.274;2023-03-01T07:47:07;96027.19;;;6.68
42119;BMP280;27783;42.782;23.274;2023-03-01T07:49:32;96027.97;;;6.87
42119;BMP280;27783;42.782;23.274;2023-03-01T07:51:59;96019.03;;;6.92
42119;BMP280;27783;42.782;23.274;2023-03-01T07:54:24;96026.16;;;6.91
42119;BMP280;27783;42.782;23.274;2023-03-01T07:56:52;96024.84;;;6.82
42119;BMP280;27783;42.782;23.274;2023-03-01T07:59:20;96008.16;;;6.90
42119;BMP280;27783;42.782;23.274;2023-03-01T08:01:46;96006.91;;;7.02
42119;BMP280;27783;42.782;23.274;2023-03-01T08:04:11;96017.00;;;7.00
42119;BMP280;27783;42.782;23.274;2023-03-01T08:06:39;96015.09;;;7.19
42119;BMP280;27783;42.782;23.274;2023-03-01T08:09:06;96003.84;;;7.19
42119;BMP280;27783;42.782;23.274;2023-03-01T08:11:32;96009.00;;;7.15
42119;BMP280;27783;42.782;23.274;2023-03-01T08:14:00;96007.41;;;7.30
42119;BMP280;27783;42.782;23.274;2023-03-01T08:16:26;96001.97;;;7.41
42119;BMP280;27783;42.782;23.274;2023-03-01T08:18:52;96002.56;;;7.53
42119;BMP280;27783;42.782;23.274;2023-03-01T08:21:18;95996.16;;;7.29
42119;BMP280;27783;42.782;23.274;2023-03-01T08:23:44;95993.81;;;7.46
42119;BMP280;27783;42.782;23.274;2023-03-01T08:26:15;95999.53;;;7.51
42119;BMP280;27783;42.782;23.274;2023-03-01T08:28:45;96001.22;;;7.63
42119;BMP280;27783;42.782;23.274;2023-03-01T08:31:24;95997.50;;;7.42
42119;BMP280;27783;42.782;23.274;2023-03-01T08:33:54;95996.19;;;7.76
42119;BMP280;27783;42.782;23.274;2023-03-01T08:36:25;96006.53;;;7.66
42119;BMP280;27783;42.782;23.274;2023-03-01T08:38:52;96002.53;;;7.75
42119;BMP280;27783;42.782;23.274;2023-03-01T08:41:19;95997.72;;;7.55
42119;BMP280;27783;42.782;23.274;2023-03-01T08:43:44;96000.94;;;7.46
42119;BMP280;27783;42.782;23.274;2023-03-01T08:46:11;96002.91;;;7.52
42119;BMP280;27783;42.782;23.274;2023-03-01T08:48:39;96002.25;;;7.58
42119;BMP280;27783;42.782;23.274;2023-03-01T08:51:18;96000.19;;;7.67
42119;BMP280;27783;42.782;23.274;2023-03-01T08:53:44;96002.22;;;7.77
42119;BMP280;27783;42.782;23.274;2023-03-01T08:56:11;96009.25;;;7.73
42119;BMP280;27783;42.782;23.274;2023-03-01T08:58:38;96004.34;;;7.71
42119;BMP280;27783;42.782;23.274;2023-03-01T09:01:10;96003.47;;;7.86
42119;BMP280;27783;42.782;23.274;2023-03-01T09:03:38;96008.19;;;7.99
42119;BMP280;27783;42.782;23.274;2023-03-01T09:06:05;96006.19;;;7.93
42119;BMP280;27783;42.782;23.274;2023-03-01T09:08:36;96003.09;;;7.87
42119;BMP280;27783;42.782;23.274;2023-03-01T09:11:04;96004.88;;;8.02
42119;BMP280;27783;42.782;23.274;2023-03-01T09:13:33;95992.22;;;7.85
42119;BMP280;27783;42.782;23.274;2023-03-01T09:16:02;95992.03;;;7.97
42119;BMP280;27783;42.782;23.274;2023-03-01T09:18:29;95994.47;;;7.87
42119;BMP280;27783;42.782;23.274;2023-03-01T09:21:04;95998.31;;;7.93
42119;BMP280;27783;42.782;23.274;2023-03-01T09:23:38;96001.25;;;7.88
42119;BMP280;27783;42.782;23.274;2023-03-01T09:26:28;95988.97;;;7.95
42119;BMP280;27783;42.782;23.274;2023-03-01T09:28:56;95987.97;;;8.28
42119;BMP280;27783;42.782;23.274;2023-03-01T09:31:23;95993.31;;;8.35
42119;BMP280;27783;42.782;23.274;2023-03-01T09:33:52;95980.44;;;8.27
42119;BMP280;27783;42.782;23.274;2023-03-01T09:36:20;95995.41;;;8.51
42119;BMP280;27783;42.782;23.274;2023-03-01T09:38:47;95981.66;;;8.61
42119;BMP280;27783;42.782;23.274;2023-03-01T09:41:21;95985.50;;;8.70
42119;BMP280;27783;42.782;23.274;2023-03-01T09:43:52;95982.63;;;8.50
42119;BMP280;27783;42.782;23.274;2023-03-01T09:46:21;95982.28;;;8.51
42119;BMP280;27783;42.782;23.274;2023-03-01T09:48:58;95970.72;;;8.59
42119;BMP280;27783;42.782;23.274;2023-03-01T09:51:34;95974.53;;;8.62
42119;BMP280;27783;42.782;23.274;2023-03-01T09:54:05;95969.31;;;8.65
42119;BMP280;27783;42.782;23.274;2023-03-01T09:57:01;95975.75;;;8.71
42119;BMP280;27783;42.782;23.274;2023-03-01T10:05:41;95953.06;;;9.27
42119;BMP280;27783;42.782;23.274;2023-03-01T10:10:43;95957.94;;;8.90
42119;BMP280;27783;42.782;23.274;2023-03-01T10:16:13;95948.63;;;8.96
42119;BMP280;27783;42.782;23.274;2023-03-01T10:18:39;95957.09;;;9.15
42119;BMP280;27783;42.782;23.274;2023-03-01T10:21:18;95943.47;;;9.06
42119;BMP280;27783;42.782;23.274;2023-03-01T10:23:44;95940.06;;;9.02
42119;BMP280;27783;42.782;23.274;2023-03-01T10:29:12;95947.16;;;9.37
42119;BMP280;27783;42.782;23.274;2023-03-01T10:31:48;95937.88;;;9.53
42119;BMP280;27783;42.782;23.274;2023-03-01T10:34:17;95950.63;;;9.48
42119;BMP280;27783;42.782;23.274;2023-03-01T10:36:47;95946.56;;;9.15
42119;BMP280;27783;42.782;23.274;2023-03-01T10:39:18;95942.69;;;9.41
42119;BMP280;27783;42.782;23.274;2023-03-01T10:41:56;95936.75;;;9.50
42119;BMP280;27783;42.782;23.274;2023-03-01T10:47:22;95923.44;;;9.79
42119;BMP280;27783;42.782;23.274;2023-03-01T10:49:57;95928.69;;;9.76
42119;BMP280;27783;42.782;23.274;2023-03-01T10:52:29;95924.00;;;9.56
42119;BMP280;27783;42.782;23.274;2023-03-01T10:54:58;95920.59;;;9.55
42119;BMP280;27783;42.782;23.274;2023-03-01T10:57:30;95925.69;;;9.35
42119;BMP280;27783;42.782;23.274;2023-03-01T11:02:38;95918.69;;;9.52
42119;BMP280;27783;42.782;23.274;2023-03-01T11:05:22;95910.44;;;9.50
42119;BMP280;27783;42.782;23.274;2023-03-01T11:07:58;95925.03;;;9.90
42119;BMP280;27783;42.782;23.274;2023-03-01T11:10:27;95923.31;;;9.65
42119;BMP280;27783;42.782;23.274;2023-03-01T11:13:14;95913.59;;;9.73
42119;BMP280;27783;42.782;23.274;2023-03-01T11:15:41;95911.16;;;9.97
42119;BMP280;27783;42.782;23.274;2023-03-01T11:18:19;95913.91;;;9.68
42119;BMP280;27783;42.782;23.274;2023-03-01T11:20:44;95918.13;;;9.27
42119;BMP280;27783;42.782;23.274;2023-03-01T11:23:12;95905.50;;;9.46
42119;BMP280;27783;42.782;23.274;2023-03-01T11:25:44;95909.72;;;9.57
42119;BMP280;27783;42.782;23.274;2023-03-01T11:28:16;95898.88;;;9.65
42119;BMP280;27783;42.782;23.274;2023-03-01T11:31:21;95907.63;;;9.76
42119;BMP280;27783;42.782;23.274;2023-03-01T11:33:53;95909.22;;;9.38
42119;BMP280;27783;42.782;23.274;2023-03-01T11:39:05;95898.75;;;9.45
42119;BMP280;27783;42.782;23.274;2023-03-01T11:41:35;95902.06;;;9.42
42119;BMP280;27783;42.782;23.274;2023-03-01T11:44:07;95891.84;;;9.30
42119;BMP280;27783;42.782;23.274;2023-03-01T11:59:58;95860.69;;;9.35
42119;BMP280;27783;42.782;23.274;2023-03-01T12:08:34;95872.00;;;9.39
42119;BMP280;27783;42.782;23.274;2023-03-01T12:16:33;95857.16;;;9.15
42119;BMP280;27783;42.782;23.274;2023-03-01T12:19:33;95854.13;;;9.13
42119;BMP280;27783;42.782;23.274;2023-03-01T12:43:47;95841.16;;;9.36
42119;BMP280;27783;42.782;23.274;2023-03-01T12:46:23;95852.84;;;9.42
42119;BMP280;27783;42.782;23.274;2023-03-01T12:49:02;95844.44;;;9.23
42119;BMP280;27783;42.782;23.274;2023-03-01T12:51:33;95842.44;;;9.07
42119;BMP280;27783;42.782;23.274;2023-03-01T12:54:05;95850.06;;;8.76
42119;BMP280;27783;42.782;23.274;2023-03-01T12:56:41;95843.91;;;9.01
42119;BMP280;27783;42.782;23.274;2023-03-01T12:59:50;95859.19;;;8.92
42119;BMP280;27783;42.782;23.274;2023-03-01T13:02:38;95842.22;;;8.83
42119;BMP280;27783;42.782;23.274;2023-03-01T13:08:17;95842.94;;;8.77
42119;BMP280;27783;42.782;23.274;2023-03-01T13:10:50;95848.03;;;8.99
42119;BMP280;27783;42.782;23.274;2023-03-01T13:13:31;95839.31;;;8.91
42119;BMP280;27783;42.782;23.274;2023-03-01T13:16:38;95843.00;;;8.83
42119;BMP280;27783;42.782;23.274;2023-03-01T13:19:24;95836.28;;;8.89
42119;BMP280;27783;42.782;23.274;2023-03-01T13:22:43;95843.72;;;8.81
42119;BMP280;27783;42.782;23.274;2023-03-01T13:25:02;95847.25;;;8.59
42119;BMP280;27783;42.782;23.274;2023-03-01T13:27:28;95845.91;;;8.72
42119;BMP280;27783;42.782;23.274;2023-03-01T13:29:59;95851.47;;;8.67
42119;BMP280;27783;42.782;23.274;2023-03-01T13:37:50;95861.72;;;8.79
42119;BMP280;27783;42.782;23.274;2023-03-01T13:42:45;95854.22;;;8.81
42119;BMP280;27783;42.782;23.274;2023-03-01T13:48:00;95837.91;;;9.04
42119;BMP280;27783;42.782;23.274;2023-03-01T13:50:33;95838.25;;;8.99
42119;BMP280;27783;42.782;23.274;2023-03-01T13:53:04;95838.69;;;9.04
42119;BMP280;27783;42.782;23.274;2023-03-01T13:55:52;95842.88;;;9.15
42119;BMP280;27783;42.782;23.274;2023-03-01T13:58:31;95850.03;;;9.15
42119;BMP280;27783;42.782;23.274;2023-03-01T14:01:04;95840.06;;;8.92
42119;BMP280;27783;42.782;23.274;2023-03-01T14:03:33;95847.06;;;8.78
42119;BMP280;27783;42.782;23.274;2023-03-01T14:06:14;95844.50;;;8.84
42119;BMP280;27783;42.782;23.274;2023-03-01T14:08:43;95836.34;;;8.96
42119;BMP280;27783;42.782;23.274;2023-03-01T14:14:48;95831.94;;;9.07
42119;BMP280;27783;42.782;23.274;2023-03-01T14:20:17;95833.38;;;8.98
42119;BMP280;27783;42.782;23.274;2023-03-01T14:22:44;95830.19;;;8.79
42119;BMP280;27783;42.782;23.274;2023-03-01T14:27:44;95830.97;;;8.82
42119;BMP280;27783;42.782;23.274;2023-03-01T14:30:15;95831.78;;;8.90
42119;BMP280;27783;42.782;23.274;2023-03-01T14:32:52;95832.53;;;8.90
42119;BMP280;27783;42.782;23.274;2023-03-01T14:35:27;95826.16;;;8.88
42119;BMP280;27783;42.782;23.274;2023-03-01T14:37:52;95826.25;;;9.01
42119;BMP280;27783;42.782;23.274;2023-03-01T14:40:30;95829.28;;;8.61
42119;BMP280;27783;42.782;23.274;2023-03-01T14:42:59;95833.06;;;8.67
42119;BMP280;27783;42.782;23.274;2023-03-01T14:45:27;95823.00;;;8.76
42119;BMP280;27783;42.782;23.274;2023-03-01T14:47:54;95827.09;;;8.70
42119;BMP280;27783;42.782;23.274;2023-03-01T14:50:28;95830.94;;;8.79
42119;BMP280;27783;42.782;23.274;2023-03-01T14:52:57;95831.97;;;8.68
42119;BMP280;27783;42.782;23.274;2023-03-01T14:55:30;95823.22;;;8.57
42119;BMP280;27783;42.782;23.274;2023-03-01T14:57:57;95829.59;;;8.56
42119;BMP280;27783;42.782;23.274;2023-03-01T15:00:27;95815.72;;;8.59
42119;BMP280;27783;42.782;23.274;2023-03-01T15:02:55;95820.88;;;8.46
42119;BMP280;27783;42.782;23.274;2023-03-01T15:05:31;95819.25;;;8.34
42119;BMP280;27783;42.782;23.274;2023-03-01T15:07:58;95814.44;;;8.43
42119;BMP280;27783;42.782;23.274;2023-03-01T15:10:32;95809.56;;;8.42
42119;BMP280;27783;42.782;23.274;2023-03-01T15:13:22;95802.66;;;8.27
42119;BMP280;27783;42.782;23.274;2023-03-01T15:15:48;95801.63;;;8.35
42119;BMP280;27783;42.782;23.274;2023-03-01T15:20:44;95807.88;;;8.24
42119;BMP280;27783;42.782;23.274;2023-03-01T15:23:19;95809.94;;;8.08
42119;BMP280;27783;42.782;23.274;2023-03-01T15:25:45;95816.22;;;8.00
42119;BMP280;27783;42.782;23.274;2023-03-01T15:28:18;95822.66;;;8.03
42119;BMP280;27783;42.782;23.274;2023-03-01T15:30:45;95814.84;;;8.10
42119;BMP280;27783;42.782;23.274;2023-03-01T15:33:36;95820.03;;;8.03
42119;BMP280;27783;42.782;23.274;2023-03-01T15:36:29;95821.13;;;8.02
42119;BMP280;27783;42.782;23.274;2023-03-01T15:38:54;95818.09;;;8.00
42119;BMP280;27783;42.782;23.274;2023-03-01T15:41:31;95820.69;;;7.97
42119;BMP280;27783;42.782;23.274;2023-03-01T15:43:58;95807.91;;;7.95
42119;BMP280;27783;42.782;23.274;2023-03-01T15:46:28;95812.16;;;8.03
42119;BMP280;27783;42.782;23.274;2023-03-01T15:48:57;95812.25;;;7.84
42119;BMP280;27783;42.782;23.274;2023-03-01T15:51:34;95814.88;;;7.84
42119;BMP280;27783;42.782;23.274;2023-03-01T15:54:06;95808.00;;;7.73
42119;BMP280;27783;42.782;23.274;2023-03-01T15:56:33;95808.69;;;7.67
42119;BMP280;27783;42.782;23.274;2023-03-01T15:59:00;95809.47;;;7.71
42119;BMP280;27783;42.782;23.274;2023-03-01T16:01:27;95804.97;;;7.71
42119;BMP280;27783;42.782;23.274;2023-03-01T16:03:52;95794.72;;;7.60
42119;BMP280;27783;42.782;23.274;2023-03-01T16:06:19;95792.81;;;7.57
42119;BMP280;27783;42.782;23.274;2023-03-01T16:08:44;95794.63;;;7.53